Terminal Aerodrome Forecast
Issued by NWS

Home | Current Version | Previous Version | Graphics & Text | Print | Product List | Glossary On
Versions: 1 2 3 4 5 6 7 8 9 10 11 12 13 14 15 16 17 18 19 20 21 22 23
000
FTUS41 KCLE 262300
TAFFDY
TAF
KFDY 262338Z 2700/2724 22010KT P6SM BKN025 OVC050
     FM270500 23003KT 4SM BR OVC015
     FM271500 22008KT P6SM VCTS OVC030CB=

USA.gov is the U.S. government's official web portal to all federal, state and local government web resources and services.